createdAt,value
2017-09-20T00:00:28.459Z,16.40
2017-09-20T00:02:56.848Z,16.30
2017-09-20T00:05:25.253Z,16.30
2017-09-20T00:07:52.919Z,16.30
2017-09-20T00:10:20.553Z,16.30
2017-09-20T00:12:49.001Z,16.30
2017-09-20T00:15:16.621Z,16.20
2017-09-20T00:17:44.267Z,16.30
2017-09-20T00:20:11.917Z,16.30
2017-09-20T00:22:40.310Z,16.20
2017-09-20T00:25:07.964Z,16.20
2017-09-20T00:27:35.580Z,16.20
2017-09-20T00:30:03.333Z,16.20
2017-09-20T00:32:31.002Z,16.20
2017-09-20T00:34:58.665Z,16.20
2017-09-20T00:37:26.439Z,16.20
2017-09-20T00:39:54.098Z,16.20
2017-09-20T00:42:21.851Z,16.20
2017-09-20T00:44:49.477Z,16.10
2017-09-20T00:47:17.129Z,16.10
2017-09-20T00:49:44.851Z,16.10
2017-09-20T00:52:12.469Z,16.10
2017-09-20T00:54:40.171Z,16.10
2017-09-20T00:57:07.788Z,16.10
2017-09-20T00:59:35.437Z,16.00
2017-09-20T01:02:03.052Z,16.10
2017-09-20T01:04:30.664Z,16.10
2017-09-20T01:06:58.313Z,16.00
2017-09-20T01:09:26.709Z,16.00
2017-09-20T01:11:54.366Z,16.00
2017-09-20T01:14:21.976Z,16.00
2017-09-20T01:16:49.626Z,16.00
2017-09-20T01:19:17.243Z,15.90
2017-09-20T01:21:57.378Z,15.90
2017-09-20T01:24:25.781Z,15.90
2017-09-20T01:26:53.411Z,15.90
2017-09-20T01:29:21.070Z,15.90
2017-09-20T01:31:48.717Z,15.90
2017-09-20T01:34:16.368Z,15.90
2017-09-20T01:36:43.985Z,15.90
2017-09-20T01:39:11.642Z,15.90
2017-09-20T01:41:40.068Z,15.90
2017-09-20T01:44:07.703Z,15.90
2017-09-20T01:46:35.379Z,15.90
2017-09-20T01:49:02.999Z,15.90
2017-09-20T01:51:31.442Z,15.90
2017-09-20T01:53:59.081Z,15.90
2017-09-20T01:56:26.739Z,15.90
2017-09-20T01:58:54.389Z,15.90
2017-09-20T02:01:22.097Z,15.90
2017-09-20T02:03:49.859Z,15.90
2017-09-20T02:06:17.708Z,15.90
2017-09-20T02:08:45.328Z,15.80
2017-09-20T02:11:13.792Z,15.80
2017-09-20T02:13:42.196Z,15.80
2017-09-20T02:16:09.822Z,15.80
2017-09-20T02:18:39.002Z,15.80
2017-09-20T02:21:06.685Z,15.70
2017-09-20T02:23:35.077Z,15.80
2017-09-20T02:26:03.503Z,15.80
2017-09-20T02:28:31.151Z,15.70
2017-09-20T02:30:58.773Z,15.80
2017-09-20T02:33:27.192Z,15.80
2017-09-20T02:35:54.878Z,15.70
2017-09-20T02:38:22.659Z,15.80
2017-09-20T02:40:50.301Z,15.70
2017-09-20T02:43:17.941Z,15.80
2017-09-20T02:45:45.597Z,15.80
2017-09-20T02:48:13.286Z,15.80
2017-09-20T02:50:40.907Z,15.80
2017-09-20T02:53:08.553Z,15.80
2017-09-20T02:55:36.951Z,15.70
2017-09-20T02:58:04.660Z,15.70
2017-09-20T03:00:32.285Z,15.70
2017-09-20T03:02:59.949Z,15.80
2017-09-20T03:05:27.565Z,15.70
2017-09-20T03:07:55.199Z,15.80
2017-09-20T03:10:22.845Z,15.70
2017-09-20T03:12:50.464Z,15.70
2017-09-20T03:15:18.880Z,15.70
2017-09-20T03:17:46.500Z,15.60
2017-09-20T03:20:14.909Z,15.70
2017-09-20T03:22:42.596Z,15.60
2017-09-20T03:25:10.254Z,15.70
2017-09-20T03:27:37.883Z,15.70
2017-09-20T03:30:05.533Z,15.60
2017-09-20T03:32:33.913Z,15.70
2017-09-20T03:35:02.337Z,15.70
2017-09-20T03:37:29.954Z,15.60
2017-09-20T03:39:58.488Z,15.60
2017-09-20T03:42:26.136Z,15.60
2017-09-20T03:44:53.768Z,15.60
2017-09-20T03:47:22.196Z,15.60
2017-09-20T03:49:49.826Z,15.60
2017-09-20T03:52:17.486Z,15.60
2017-09-20T03:54:45.184Z,15.60
2017-09-20T03:57:12.810Z,15.60
2017-09-20T03:59:40.477Z,15.60
2017-09-20T04:02:08.105Z,15.60
2017-09-20T04:04:36.644Z,15.60
2017-09-20T04:07:04.260Z,15.60
2017-09-20T04:09:31.901Z,15.60
2017-09-20T04:12:00.347Z,15.60
2017-09-20T04:14:28.107Z,15.50
2017-09-20T04:16:55.756Z,15.60
2017-09-20T04:19:23.392Z,15.60
2017-09-20T04:21:51.036Z,15.60
2017-09-20T04:24:19.433Z,15.60
2017-09-20T04:26:47.131Z,15.50
2017-09-20T04:29:14.744Z,15.60
2017-09-20T04:31:43.149Z,15.60
2017-09-20T04:34:10.857Z,15.50
2017-09-20T04:36:38.708Z,15.60
2017-09-20T04:39:06.361Z,15.60
2017-09-20T04:41:33.994Z,15.60
2017-09-20T04:44:01.641Z,15.60
2017-09-20T04:46:30.029Z,15.50
2017-09-20T04:48:57.669Z,15.50
2017-09-20T04:51:26.071Z,15.50
2017-09-20T04:53:54.601Z,15.50
2017-09-20T04:56:22.266Z,15.50
2017-09-20T04:58:49.892Z,15.50
2017-09-20T05:01:17.581Z,15.50
2017-09-20T05:03:45.336Z,15.50
2017-09-20T05:06:13.002Z,15.50
2017-09-20T05:08:40.662Z,15.50
2017-09-20T05:11:08.321Z,15.50
2017-09-20T05:13:35.982Z,15.50
2017-09-20T05:16:03.610Z,15.40
2017-09-20T05:18:31.531Z,15.40
2017-09-20T05:20:59.161Z,15.40
2017-09-20T05:23:26.831Z,15.40
2017-09-20T05:25:54.599Z,15.40
2017-09-20T05:28:22.237Z,15.40
2017-09-20T05:30:49.925Z,15.40
2017-09-20T05:33:17.572Z,15.40
2017-09-20T05:35:45.261Z,15.40
2017-09-20T05:38:12.890Z,15.40
2017-09-20T05:40:40.570Z,15.40
2017-09-20T05:43:08.251Z,15.40
2017-09-20T05:45:36.001Z,15.40
2017-09-20T05:48:03.765Z,15.40
2017-09-20T05:50:31.551Z,15.40
2017-09-20T05:52:59.180Z,15.40
2017-09-20T05:55:26.875Z,15.40
2017-09-20T05:57:54.536Z,15.40
2017-09-20T06:00:22.170Z,15.40
2017-09-20T06:02:49.808Z,15.40
2017-09-20T06:05:17.433Z,15.40
2017-09-20T06:07:45.869Z,15.40
2017-09-20T06:10:13.499Z,15.30
2017-09-20T06:12:41.151Z,15.40
2017-09-20T06:15:08.787Z,15.40
2017-09-20T06:17:36.404Z,15.40
2017-09-20T06:20:04.071Z,15.40
2017-09-20T06:22:31.719Z,15.40
2017-09-20T06:24:59.415Z,15.40
2017-09-20T06:27:27.033Z,15.40
2017-09-20T06:29:54.680Z,15.40
2017-09-20T06:32:23.074Z,15.50
2017-09-20T06:34:50.795Z,15.40
2017-09-20T06:37:18.428Z,15.50
2017-09-20T06:39:46.128Z,15.50
2017-09-20T06:42:14.599Z,15.50
2017-09-20T06:44:43.781Z,15.40
2017-09-20T06:47:11.435Z,15.40
2017-09-20T06:49:39.070Z,15.50
2017-09-20T06:52:06.729Z,15.50
2017-09-20T06:54:34.376Z,15.50
2017-09-20T06:57:02.761Z,15.50
2017-09-20T06:59:30.428Z,15.50
2017-09-20T07:01:58.226Z,15.50
2017-09-20T07:04:25.992Z,15.60
2017-09-20T07:06:53.618Z,15.60
2017-09-20T07:09:21.260Z,15.60
2017-09-20T07:11:49.796Z,15.60
2017-09-20T07:14:17.490Z,15.50
2017-09-20T07:16:45.878Z,15.60
2017-09-20T07:19:14.287Z,15.60
2017-09-20T07:21:41.954Z,15.60
2017-09-20T07:24:09.586Z,15.60
2017-09-20T07:26:38.010Z,15.70
2017-09-20T07:29:05.634Z,15.60
2017-09-20T07:31:34.074Z,15.70
2017-09-20T07:34:01.718Z,15.70
2017-09-20T07:36:29.583Z,15.70
2017-09-20T07:38:57.223Z,15.70
2017-09-20T07:41:24.868Z,15.80
2017-09-20T07:43:52.485Z,15.80
2017-09-20T07:46:20.155Z,15.80
2017-09-20T07:48:47.905Z,15.80
2017-09-20T07:51:15.551Z,15.90
2017-09-20T07:53:43.338Z,15.90
2017-09-20T07:56:10.980Z,15.90
2017-09-20T07:58:38.657Z,15.90
2017-09-20T08:01:06.288Z,16.00
2017-09-20T08:03:33.959Z,16.00
2017-09-20T08:06:01.572Z,16.00
2017-09-20T08:08:30.205Z,16.10
2017-09-20T08:10:57.852Z,16.10
2017-09-20T08:13:25.476Z,16.20
2017-09-20T08:15:53.935Z,16.20
2017-09-20T08:18:23.134Z,16.20
2017-09-20T08:20:53.590Z,16.20
2017-09-20T08:23:21.521Z,16.20
2017-09-20T08:25:49.211Z,16.30
2017-09-20T08:28:17.666Z,16.40
2017-09-20T08:30:45.424Z,16.30
2017-09-20T08:33:13.300Z,16.40
2017-09-20T08:35:41.113Z,16.40
2017-09-20T08:38:08.935Z,16.50
2017-09-20T08:40:36.656Z,16.50
2017-09-20T08:43:04.560Z,16.60
2017-09-20T08:45:32.212Z,16.60
2017-09-20T08:48:00.099Z,16.70
2017-09-20T08:50:27.802Z,16.80
2017-09-20T08:52:55.720Z,16.80
2017-09-20T08:55:23.599Z,16.80
2017-09-20T08:57:51.382Z,16.90
2017-09-20T09:00:19.964Z,16.90
2017-09-20T09:02:48.611Z,16.90
2017-09-20T09:05:16.384Z,16.90
2017-09-20T09:07:44.254Z,17.00
2017-09-20T09:10:11.918Z,17.00
2017-09-20T09:12:39.641Z,17.00
2017-09-20T09:15:07.323Z,17.10
2017-09-20T09:17:35.212Z,17.10
2017-09-20T09:20:02.975Z,17.10
2017-09-20T09:22:30.737Z,17.10
2017-09-20T09:24:58.432Z,17.10
2017-09-20T09:27:26.962Z,17.20
2017-09-20T09:29:54.746Z,17.10
2017-09-20T09:32:24.085Z,17.20
2017-09-20T09:34:52.700Z,17.30
2017-09-20T09:37:20.499Z,17.20
2017-09-20T09:39:48.360Z,17.30
2017-09-20T09:42:16.146Z,17.30
2017-09-20T09:44:44.578Z,17.30
2017-09-20T09:47:12.267Z,17.30
2017-09-20T09:49:40.081Z,17.40
2017-09-20T09:52:07.903Z,17.40
2017-09-20T09:54:35.658Z,17.40
2017-09-20T09:57:03.462Z,17.50
2017-09-20T09:59:32.053Z,17.50
2017-09-20T10:02:00.570Z,17.60
2017-09-20T10:04:28.343Z,17.50
2017-09-20T10:06:56.335Z,17.60
2017-09-20T10:09:24.131Z,17.60
2017-09-20T10:11:52.667Z,17.70
2017-09-20T10:14:20.424Z,17.70
2017-09-20T10:16:48.116Z,17.80
2017-09-20T10:22:10.124Z,18.00
2017-09-20T10:24:37.770Z,18.00
2017-09-20T10:27:05.399Z,18.10
2017-09-20T10:29:33.808Z,18.20
2017-09-20T10:32:01.449Z,18.20
2017-09-20T10:34:29.098Z,18.30
2017-09-20T10:36:57.493Z,18.40
2017-09-20T10:39:25.926Z,18.40
2017-09-20T10:41:53.566Z,18.40
2017-09-20T10:44:21.225Z,18.50
2017-09-20T10:46:48.844Z,18.60
2017-09-20T10:49:21.028Z,18.70
2017-09-20T10:51:48.806Z,18.70
2017-09-20T10:54:16.566Z,18.70
2017-09-20T10:56:44.360Z,18.80
2017-09-20T10:59:12.184Z,18.80
2017-09-20T11:01:40.569Z,18.90
2017-09-20T11:04:08.240Z,18.80
2017-09-20T11:06:35.875Z,18.90
2017-09-20T11:09:04.258Z,18.90
2017-09-20T11:11:32.701Z,19.00
2017-09-20T11:14:00.384Z,19.00
2017-09-20T11:16:28.042Z,19.00
2017-09-20T11:18:55.691Z,19.10
2017-09-20T11:21:23.408Z,19.10
2017-09-20T11:23:51.029Z,19.20
2017-09-20T11:26:18.684Z,19.20
2017-09-20T11:28:46.319Z,19.20
2017-09-20T11:31:13.943Z,19.30
2017-09-20T11:33:41.595Z,19.30
2017-09-20T11:36:09.999Z,19.30
2017-09-20T11:38:37.691Z,19.30
2017-09-20T11:41:06.079Z,19.30
2017-09-20T11:43:34.511Z,19.30
2017-09-20T11:46:02.155Z,19.30
2017-09-20T11:48:30.575Z,19.40
2017-09-20T11:50:58.253Z,19.30
2017-09-20T11:53:26.014Z,19.40
2017-09-20T11:55:53.672Z,19.40
2017-09-20T11:58:21.307Z,19.50
2017-09-20T12:00:48.966Z,19.50
2017-09-20T12:03:16.584Z,19.50
2017-09-20T12:05:44.246Z,19.60
2017-09-20T12:08:11.874Z,19.60
2017-09-20T12:10:39.497Z,19.60
2017-09-20T12:13:07.925Z,19.70
2017-09-20T12:15:35.574Z,19.70
2017-09-20T12:18:03.225Z,19.80
2017-09-20T12:20:30.863Z,19.80
2017-09-20T12:22:59.269Z,19.90
2017-09-20T12:25:26.936Z,19.90
2017-09-20T12:27:54.570Z,20.00
2017-09-20T12:30:22.991Z,20.00
2017-09-20T12:32:50.682Z,20.00
2017-09-20T12:35:18.338Z,20.10
2017-09-20T12:37:45.963Z,20.10
2017-09-20T12:40:13.616Z,20.10
2017-09-20T12:42:41.268Z,20.10
2017-09-20T12:45:08.929Z,20.20
2017-09-20T12:47:36.572Z,20.20
2017-09-20T12:50:05.105Z,20.30
2017-09-20T12:52:32.891Z,20.30
2017-09-20T12:55:00.522Z,20.40
2017-09-20T12:57:28.201Z,20.40
2017-09-20T12:59:56.583Z,20.60
2017-09-20T13:02:24.245Z,20.50
2017-09-20T13:04:51.874Z,20.60
2017-09-20T13:07:19.524Z,20.60
2017-09-20T13:09:47.172Z,20.60
2017-09-20T13:12:15.599Z,20.50
2017-09-20T13:14:43.250Z,20.50
2017-09-20T13:17:10.939Z,20.50
2017-09-20T13:19:40.057Z,20.50
2017-09-20T13:22:08.446Z,20.50
2017-09-20T13:24:36.865Z,20.60
2017-09-20T13:27:04.499Z,20.50
2017-09-20T13:29:32.923Z,20.60
2017-09-20T13:32:00.615Z,20.50
2017-09-20T13:34:28.278Z,20.60
2017-09-20T13:36:55.905Z,20.60
2017-09-20T13:39:23.550Z,20.50
2017-09-20T13:41:51.242Z,20.50
2017-09-20T13:44:18.883Z,20.50
2017-09-20T13:46:46.540Z,20.50
2017-09-20T13:49:14.201Z,20.50
2017-09-20T13:51:41.864Z,20.50
2017-09-20T13:54:09.490Z,20.50
2017-09-20T13:56:37.912Z,20.50
2017-09-20T13:59:05.525Z,20.40
2017-09-20T14:01:33.956Z,20.50
2017-09-20T14:04:01.594Z,20.40
2017-09-20T14:06:29.209Z,20.50
2017-09-20T14:08:56.856Z,20.50
2017-09-20T14:11:24.471Z,20.50
2017-09-20T14:13:52.119Z,20.50
2017-09-20T14:16:19.733Z,20.50
2017-09-20T14:18:47.410Z,20.50
2017-09-20T14:21:15.827Z,20.60
2017-09-20T14:23:43.493Z,20.50
2017-09-20T14:26:11.131Z,20.50
2017-09-20T14:28:39.582Z,20.60
2017-09-20T14:31:07.212Z,20.50
2017-09-20T14:33:34.855Z,20.60
2017-09-20T14:36:02.519Z,20.60
2017-09-20T14:38:30.155Z,20.60
2017-09-20T14:40:58.600Z,20.50
2017-09-20T14:43:26.236Z,20.50
2017-09-20T14:45:53.914Z,20.50
2017-09-20T14:48:21.546Z,20.50
2017-09-20T14:50:49.191Z,20.50
2017-09-20T14:53:17.587Z,20.50
2017-09-20T14:55:45.232Z,20.40
2017-09-20T14:58:13.643Z,20.40
2017-09-20T15:00:41.302Z,20.40
2017-09-20T15:03:08.936Z,20.40
2017-09-20T15:05:37.332Z,20.40
2017-09-20T15:08:04.982Z,20.30
2017-09-20T15:10:32.607Z,20.40
2017-09-20T15:13:00.250Z,20.30
2017-09-20T15:15:27.869Z,20.30
2017-09-20T15:17:55.549Z,20.30
2017-09-20T15:20:23.202Z,20.20
2017-09-20T15:22:50.857Z,20.20
2017-09-20T15:25:18.511Z,20.20
2017-09-20T15:27:46.170Z,20.10
2017-09-20T15:30:13.823Z,20.10
2017-09-20T15:32:42.224Z,20.00
2017-09-20T15:35:09.881Z,20.00
2017-09-20T15:37:37.515Z,20.00
2017-09-20T15:40:05.171Z,19.90
2017-09-20T15:42:32.785Z,19.90
2017-09-20T15:45:00.450Z,19.90
2017-09-20T15:47:28.093Z,19.80
2017-09-20T15:49:55.711Z,19.80
2017-09-20T15:52:23.392Z,19.80
2017-09-20T15:54:51.803Z,19.80
2017-09-20T15:57:19.473Z,19.70
2017-09-20T15:59:47.089Z,19.70
2017-09-20T16:02:15.505Z,19.70
2017-09-20T16:04:43.134Z,19.70
2017-09-20T16:07:11.571Z,19.70
2017-09-20T16:09:39.218Z,19.60
2017-09-20T16:12:06.877Z,19.70
2017-09-20T16:14:34.516Z,19.60
2017-09-20T16:17:02.159Z,19.60
2017-09-20T16:19:30.587Z,19.60
2017-09-20T16:21:58.201Z,19.60
2017-09-20T16:24:26.645Z,19.60
2017-09-20T16:26:54.296Z,19.50
2017-09-20T16:29:21.956Z,19.50
2017-09-20T16:31:49.586Z,19.50
2017-09-20T16:34:17.232Z,19.50
2017-09-20T16:36:45.617Z,19.50
2017-09-20T16:39:14.052Z,19.40
2017-09-20T16:41:41.690Z,19.40
2017-09-20T16:44:09.317Z,19.50
2017-09-20T16:46:37.908Z,19.40
2017-09-20T16:49:05.560Z,19.40
2017-09-20T16:51:34.076Z,19.30
2017-09-20T16:54:01.918Z,19.30
2017-09-20T16:56:29.736Z,19.30
2017-09-20T16:58:57.383Z,19.30
2017-09-20T17:01:25.268Z,19.20
2017-09-20T17:03:53.067Z,19.20
2017-09-20T17:06:21.454Z,19.10
2017-09-20T17:08:49.867Z,19.10
2017-09-20T17:11:17.480Z,19.00
2017-09-20T17:13:45.903Z,19.00
2017-09-20T17:16:13.536Z,19.00
2017-09-20T17:18:41.264Z,19.00
2017-09-20T17:21:08.902Z,18.90
2017-09-20T17:23:36.615Z,18.90
2017-09-20T17:26:05.168Z,18.80
2017-09-20T17:28:34.315Z,18.70
2017-09-20T17:31:02.060Z,18.70
2017-09-20T17:33:29.701Z,18.70
2017-09-20T17:35:57.367Z,18.70
2017-09-20T17:38:25.112Z,18.70
2017-09-20T17:40:52.766Z,18.70
2017-09-20T17:43:20.406Z,18.60
2017-09-20T17:45:48.100Z,18.60
2017-09-20T17:48:17.382Z,18.50
2017-09-20T17:50:44.994Z,18.50
2017-09-20T17:53:13.469Z,18.50
2017-09-20T17:55:41.135Z,18.50
2017-09-20T17:58:09.565Z,18.50
2017-09-20T18:00:37.180Z,18.40
2017-09-20T18:03:05.593Z,18.40
2017-09-20T18:05:33.226Z,18.40
2017-09-20T18:08:00.868Z,18.40
2017-09-20T18:10:29.332Z,18.30
2017-09-20T18:12:57.283Z,18.30
2017-09-20T18:15:24.904Z,18.30
2017-09-20T18:17:52.598Z,18.30
2017-09-20T18:20:20.246Z,18.20
2017-09-20T18:22:47.864Z,18.20
2017-09-20T18:25:16.360Z,18.20
2017-09-20T18:27:44.749Z,18.20
2017-09-20T18:30:12.401Z,18.10
2017-09-20T18:32:40.044Z,18.20
2017-09-20T18:35:08.435Z,18.10
2017-09-20T18:37:36.123Z,18.10
2017-09-20T18:40:03.742Z,18.10
2017-09-20T18:42:32.157Z,18.00
2017-09-20T18:44:59.777Z,18.00
2017-09-20T18:47:27.431Z,18.00
2017-09-20T18:49:55.057Z,18.00
2017-09-20T18:52:22.719Z,18.00
2017-09-20T18:54:50.359Z,18.00
2017-09-20T18:57:17.991Z,18.00
2017-09-20T18:59:45.982Z,17.90
2017-09-20T19:02:14.019Z,17.90
2017-09-20T19:04:41.735Z,17.90
2017-09-20T19:07:09.371Z,17.90
2017-09-20T19:09:37.781Z,17.80
2017-09-20T19:12:05.396Z,17.80
2017-09-20T19:14:33.069Z,17.80
2017-09-20T19:17:01.475Z,17.80
2017-09-20T19:19:29.121Z,17.80
2017-09-20T19:21:56.771Z,17.80
2017-09-20T19:24:25.181Z,17.80
2017-09-20T19:26:52.839Z,17.70
2017-09-20T19:29:20.478Z,17.70
2017-09-20T19:31:48.917Z,17.70
2017-09-20T19:34:16.547Z,17.70
2017-09-20T19:36:44.164Z,17.70
2017-09-20T19:39:11.838Z,17.70
2017-09-20T19:41:40.249Z,17.70
2017-09-20T19:44:07.872Z,17.60
2017-09-20T19:46:36.290Z,17.60
2017-09-20T19:49:04.005Z,17.60
2017-09-20T19:51:31.716Z,17.60
2017-09-20T19:53:59.504Z,17.60
2017-09-20T19:56:27.152Z,17.60
2017-09-20T19:58:54.786Z,17.60
2017-09-20T20:01:23.066Z,17.60
2017-09-20T20:03:50.710Z,17.60
2017-09-20T20:06:19.126Z,17.60
2017-09-20T20:08:46.823Z,17.50
2017-09-20T20:11:15.992Z,17.50
2017-09-20T20:13:43.609Z,17.50
2017-09-20T20:16:12.037Z,17.50
2017-09-20T20:18:39.655Z,17.40
2017-09-20T20:21:08.084Z,17.50
2017-09-20T20:23:35.747Z,17.40
2017-09-20T20:26:03.421Z,17.40
2017-09-20T20:28:31.069Z,17.40
2017-09-20T20:30:58.705Z,17.40
2017-09-20T20:33:26.352Z,17.40
2017-09-20T20:35:54.108Z,17.40
2017-09-20T20:38:22.691Z,17.40
2017-09-20T20:40:51.801Z,17.40
2017-09-20T20:43:19.499Z,17.30
2017-09-20T20:45:47.262Z,17.40
2017-09-20T20:48:14.945Z,17.40
2017-09-20T20:50:44.142Z,17.30
2017-09-20T20:53:11.765Z,17.30
2017-09-20T20:55:39.407Z,17.30
2017-09-20T20:58:07.217Z,17.30
2017-09-20T21:00:34.893Z,17.30
2017-09-20T21:03:02.534Z,17.30
2017-09-20T21:05:30.190Z,17.30
2017-09-20T21:07:58.204Z,17.30
2017-09-20T21:10:26.592Z,17.20
2017-09-20T21:12:55.023Z,17.20
2017-09-20T21:15:23.653Z,17.20
2017-09-20T21:17:51.368Z,17.20
2017-09-20T21:20:19.136Z,17.20
2017-09-20T21:22:46.781Z,17.20
2017-09-20T21:25:14.563Z,17.20
2017-09-20T21:27:42.234Z,17.20
2017-09-20T21:30:09.878Z,17.20
2017-09-20T21:32:37.547Z,17.20
2017-09-20T21:35:05.221Z,17.10
2017-09-20T21:37:32.866Z,17.10
2017-09-20T21:40:00.526Z,17.10
2017-09-20T21:42:28.149Z,17.10
2017-09-20T21:44:58.231Z,17.10
2017-09-20T21:47:25.853Z,17.10
2017-09-20T21:49:53.756Z,17.10
2017-09-20T21:52:21.393Z,17.10
2017-09-20T21:54:49.059Z,17.10
2017-09-20T21:57:16.728Z,17.00
2017-09-20T21:59:44.367Z,17.00
2017-09-20T22:02:12.022Z,17.00
2017-09-20T22:04:39.709Z,17.00
2017-09-20T22:07:07.489Z,17.00
2017-09-20T22:09:35.108Z,16.90
2017-09-20T22:12:02.825Z,16.90
2017-09-20T22:14:34.987Z,16.90
2017-09-20T22:17:14.501Z,16.90
2017-09-20T22:19:54.276Z,16.90
2017-09-20T22:22:34.123Z,16.80
2017-09-20T22:25:13.948Z,16.80
2017-09-20T22:27:41.814Z,16.80
2017-09-20T22:30:09.598Z,16.80
2017-09-20T22:32:37.409Z,16.70
2017-09-20T22:35:05.123Z,16.70
2017-09-20T22:37:32.993Z,16.70
2017-09-20T22:40:00.861Z,16.70
2017-09-20T22:42:28.801Z,16.70
2017-09-20T22:44:56.697Z,16.70
2017-09-20T22:47:24.440Z,16.60
2017-09-20T22:49:52.246Z,16.60
2017-09-20T22:52:20.788Z,16.60
2017-09-20T22:54:48.552Z,16.50
2017-09-20T22:57:16.374Z,16.60
2017-09-20T22:59:44.014Z,16.50
2017-09-20T23:02:11.782Z,16.50
2017-09-20T23:04:40.265Z,16.50
2017-09-20T23:07:08.714Z,16.50
2017-09-20T23:09:36.584Z,16.40
2017-09-20T23:12:04.459Z,16.50
2017-09-20T23:14:32.142Z,16.40
2017-09-20T23:17:00.582Z,16.40
2017-09-20T23:19:28.391Z,16.40
2017-09-20T23:21:56.864Z,16.40
2017-09-20T23:24:25.271Z,16.40
2017-09-20T23:26:53.081Z,16.30
2017-09-20T23:29:20.739Z,16.40
2017-09-20T23:31:48.528Z,16.30
2017-09-20T23:34:16.195Z,16.30
2017-09-20T23:36:43.910Z,16.30
2017-09-20T23:39:11.613Z,16.30
2017-09-20T23:41:39.299Z,16.30
2017-09-20T23:44:07.740Z,16.30
2017-09-20T23:46:35.462Z,16.30
2017-09-20T23:49:03.140Z,16.30
2017-09-20T23:51:30.842Z,16.30
2017-09-20T23:53:58.491Z,16.30
2017-09-20T23:56:26.188Z,16.30
2017-09-20T23:58:54.689Z,16.30
